sensor_id;sensor_type;location;lat;lon;timestamp;temperature;humidity
23385;DHT22;11865;45.394;10.978;2023-05-02T00:00:00;12.10;99.90
23385;DHT22;11865;45.394;10.978;2023-05-02T00:02:31;12.10;99.90
23385;DHT22;11865;45.394;10.978;2023-05-02T00:04:59;12.10;99.90
23385;DHT22;11865;45.394;10.978;2023-05-02T00:07:27;12.10;99.90
23385;DHT22;11865;45.394;10.978;2023-05-02T00:09:54;12.10;99.90
23385;DHT22;11865;45.394;10.978;2023-05-02T00:12:22;12.10;99.90
23385;DHT22;11865;45.394;10.978;2023-05-02T00:14:49;12.10;99.90
23385;DHT22;11865;45.394;10.978;2023-05-02T00:17:20;12.10;99.90
23385;DHT22;11865;45.394;10.978;2023-05-02T00:19:48;12.20;99.90
23385;DHT22;11865;45.394;10.978;2023-05-02T00:22:15;12.20;99.90
23385;DHT22;11865;45.394;10.978;2023-05-02T00:24:42;12.20;99.90
23385;DHT22;11865;45.394;10.978;2023-05-02T00:27:10;12.20;99.90
23385;DHT22;11865;45.394;10.978;2023-05-02T00:29:37;12.20;99.90
23385;DHT22;11865;45.394;10.978;2023-05-02T00:32:05;12.20;99.90
23385;DHT22;11865;45.394;10.978;2023-05-02T00:34:32;12.20;99.90
23385;DHT22;11865;45.394;10.978;2023-05-02T00:37:00;12.30;99.90
23385;DHT22;11865;45.394;10.978;2023-05-02T00:39:27;12.20;99.90
23385;DHT22;11865;45.394;10.978;2023-05-02T00:41:58;12.30;99.90
23385;DHT22;11865;45.394;10.978;2023-05-02T00:44:26;12.30;99.90
23385;DHT22;11865;45.394;10.978;2023-05-02T00:46:55;12.40;99.90
23385;DHT22;11865;45.394;10.978;2023-05-02T00:49:23;12.40;99.90
23385;DHT22;11865;45.394;10.978;2023-05-02T00:51:52;12.40;99.90
23385;DHT22;11865;45.394;10.978;2023-05-02T00:54:20;12.50;99.90
23385;DHT22;11865;45.394;10.978;2023-05-02T00:56:47;12.50;99.90
23385;DHT22;11865;45.394;10.978;2023-05-02T00:59:15;12.50;99.90
23385;DHT22;11865;45.394;10.978;2023-05-02T01:10:29;12.50;99.90
23385;DHT22;11865;45.394;10.978;2023-05-02T01:13:23;12.60;99.90
23385;DHT22;11865;45.394;10.978;2023-05-02T01:15:51;12.60;99.90
23385;DHT22;11865;45.394;10.978;2023-05-02T01:18:22;12.50;99.90
23385;DHT22;11865;45.394;10.978;2023-05-02T01:20:59;12.40;99.90
23385;DHT22;11865;45.394;10.978;2023-05-02T01:27:16;12.40;99.90
23385;DHT22;11865;45.394;10.978;2023-05-02T01:29:48;12.40;99.90
23385;DHT22;11865;45.394;10.978;2023-05-02T01:32:19;12.30;99.90
23385;DHT22;11865;45.394;10.978;2023-05-02T01:34:49;12.30;99.90
23385;DHT22;11865;45.394;10.978;2023-05-02T01:37:17;12.30;99.90
23385;DHT22;11865;45.394;10.978;2023-05-02T01:39:45;12.30;99.90
23385;DHT22;11865;45.394;10.978;2023-05-02T01:42:15;12.50;99.90
23385;DHT22;11865;45.394;10.978;2023-05-02T01:44:44;12.40;99.90
23385;DHT22;11865;45.394;10.978;2023-05-02T01:47:13;12.50;99.90
23385;DHT22;11865;45.394;10.978;2023-05-02T01:49:41;12.50;99.90
23385;DHT22;11865;45.394;10.978;2023-05-02T01:52:10;12.50;99.90
23385;DHT22;11865;45.394;10.978;2023-05-02T01:54:39;12.60;99.90
23385;DHT22;11865;45.394;10.978;2023-05-02T01:57:09;12.60;99.90
23385;DHT22;11865;45.394;10.978;2023-05-02T01:59:39;12.60;99.90
23385;DHT22;11865;45.394;10.978;2023-05-02T02:02:09;12.60;99.90
23385;DHT22;11865;45.394;10.978;2023-05-02T02:04:38;12.50;99.90
23385;DHT22;11865;45.394;10.978;2023-05-02T02:07:12;12.60;99.90
23385;DHT22;11865;45.394;10.978;2023-05-02T02:09:39;12.50;99.90
23385;DHT22;11865;45.394;10.978;2023-05-02T02:12:10;12.50;99.90
23385;DHT22;11865;45.394;10.978;2023-05-02T02:14:50;12.50;99.90
23385;DHT22;11865;45.394;10.978;2023-05-02T02:17:25;12.40;99.90
23385;DHT22;11865;45.394;10.978;2023-05-02T02:19:55;12.40;99.90
23385;DHT22;11865;45.394;10.978;2023-05-02T02:22:25;12.30;99.90
23385;DHT22;11865;45.394;10.978;2023-05-02T02:24:53;12.30;99.90
23385;DHT22;11865;45.394;10.978;2023-05-02T02:27:21;12.30;99.90
23385;DHT22;11865;45.394;10.978;2023-05-02T02:29:49;12.40;99.90
23385;DHT22;11865;45.394;10.978;2023-05-02T02:32:16;12.40;99.90
23385;DHT22;11865;45.394;10.978;2023-05-02T02:34:44;12.40;99.90
23385;DHT22;11865;45.394;10.978;2023-05-02T02:37:19;12.40;99.90
23385;DHT22;11865;45.394;10.978;2023-05-02T02:39:57;12.70;99.90
23385;DHT22;11865;45.394;10.978;2023-05-02T02:42:38;12.70;99.90
23385;DHT22;11865;45.394;10.978;2023-05-02T02:51:13;14.60;99.90
23385;DHT22;11865;45.394;10.978;2023-05-02T02:54:00;14.60;99.90
23385;DHT22;11865;45.394;10.978;2023-05-02T02:57:00;14.60;99.90
23385;DHT22;11865;45.394;10.978;2023-05-02T02:59:32;14.70;99.90
23385;DHT22;11865;45.394;10.978;2023-05-02T03:02:08;14.70;99.90
23385;DHT22;11865;45.394;10.978;2023-05-02T03:04:38;14.70;99.90
23385;DHT22;11865;45.394;10.978;2023-05-02T03:07:07;14.70;99.90
23385;DHT22;11865;45.394;10.978;2023-05-02T03:09:45;14.80;99.90
23385;DHT22;11865;45.394;10.978;2023-05-02T03:12:19;14.70;99.90
23385;DHT22;11865;45.394;10.978;2023-05-02T03:14:48;14.70;99.90
23385;DHT22;11865;45.394;10.978;2023-05-02T03:17:16;14.70;99.90
23385;DHT22;11865;45.394;10.978;2023-05-02T03:19:45;14.80;99.90
23385;DHT22;11865;45.394;10.978;2023-05-02T03:22:13;14.80;99.90
23385;DHT22;11865;45.394;10.978;2023-05-02T03:24:41;14.50;99.90
23385;DHT22;11865;45.394;10.978;2023-05-02T03:27:11;14.40;99.90
23385;DHT22;11865;45.394;10.978;2023-05-02T03:29:41;14.40;99.90
23385;DHT22;11865;45.394;10.978;2023-05-02T03:32:10;14.50;99.90
23385;DHT22;11865;45.394;10.978;2023-05-02T03:34:40;14.50;99.90
23385;DHT22;11865;45.394;10.978;2023-05-02T03:37:08;14.50;99.90
23385;DHT22;11865;45.394;10.978;2023-05-02T03:39:35;14.60;99.90
23385;DHT22;11865;45.394;10.978;2023-05-02T03:42:04;14.60;99.90
23385;DHT22;11865;45.394;10.978;2023-05-02T03:44:31;14.60;99.90
23385;DHT22;11865;45.394;10.978;2023-05-02T03:46:59;14.60;99.90
23385;DHT22;11865;45.394;10.978;2023-05-02T03:49:28;14.60;99.90
23385;DHT22;11865;45.394;10.978;2023-05-02T03:51:55;14.50;99.90
23385;DHT22;11865;45.394;10.978;2023-05-02T03:54:31;14.50;99.90
23385;DHT22;11865;45.394;10.978;2023-05-02T03:56:59;14.60;99.90
23385;DHT22;11865;45.394;10.978;2023-05-02T03:59:33;14.60;99.90
23385;DHT22;11865;45.394;10.978;2023-05-02T04:02:08;14.60;99.90
23385;DHT22;11865;45.394;10.978;2023-05-02T04:04:42;14.60;99.90
23385;DHT22;11865;45.394;10.978;2023-05-02T04:07:12;14.60;99.90
23385;DHT22;11865;45.394;10.978;2023-05-02T04:09:46;14.60;99.90
23385;DHT22;11865;45.394;10.978;2023-05-02T04:12:15;14.60;99.90
23385;DHT22;11865;45.394;10.978;2023-05-02T04:14:46;14.50;99.90
23385;DHT22;11865;45.394;10.978;2023-05-02T04:17:13;14.60;99.90
23385;DHT22;11865;45.394;10.978;2023-05-02T04:19:47;14.70;99.90
23385;DHT22;11865;45.394;10.978;2023-05-02T04:22:16;14.70;99.90
23385;DHT22;11865;45.394;10.978;2023-05-02T04:24:48;14.60;99.90
23385;DHT22;11865;45.394;10.978;2023-05-02T04:27:16;14.60;99.90
23385;DHT22;11865;45.394;10.978;2023-05-02T04:29:47;14.70;99.90
23385;DHT22;11865;45.394;10.978;2023-05-02T04:32:16;14.70;99.90
23385;DHT22;11865;45.394;10.978;2023-05-02T04:34:45;14.80;99.90
23385;DHT22;11865;45.394;10.978;2023-05-02T04:37:13;14.80;99.90
23385;DHT22;11865;45.394;10.978;2023-05-02T04:39:44;14.80;99.90
23385;DHT22;11865;45.394;10.978;2023-05-02T04:42:16;14.90;99.90
23385;DHT22;11865;45.394;10.978;2023-05-02T04:45:10;14.90;99.90
23385;DHT22;11865;45.394;10.978;2023-05-02T04:47:38;15.00;99.90
23385;DHT22;11865;45.394;10.978;2023-05-02T04:50:06;14.90;99.90
23385;DHT22;11865;45.394;10.978;2023-05-02T04:52:34;14.90;99.90
23385;DHT22;11865;45.394;10.978;2023-05-02T04:55:02;14.90;99.90
23385;DHT22;11865;45.394;10.978;2023-05-02T04:57:30;14.90;99.90
23385;DHT22;11865;45.394;10.978;2023-05-02T04:59:59;14.90;99.90
23385;DHT22;11865;45.394;10.978;2023-05-02T05:02:27;14.90;99.90
23385;DHT22;11865;45.394;10.978;2023-05-02T05:04:56;15.00;99.90
23385;DHT22;11865;45.394;10.978;2023-05-02T05:07:24;15.00;99.90
23385;DHT22;11865;45.394;10.978;2023-05-02T05:09:53;14.90;99.90
23385;DHT22;11865;45.394;10.978;2023-05-02T05:12:23;14.90;99.90
23385;DHT22;11865;45.394;10.978;2023-05-02T05:14:50;15.00;99.90
23385;DHT22;11865;45.394;10.978;2023-05-02T05:17:20;15.00;99.90
23385;DHT22;11865;45.394;10.978;2023-05-02T05:19:49;15.10;99.90
23385;DHT22;11865;45.394;10.978;2023-05-02T05:22:17;15.10;99.90
23385;DHT22;11865;45.394;10.978;2023-05-02T05:24:53;15.10;99.90
23385;DHT22;11865;45.394;10.978;2023-05-02T05:27:23;15.20;99.90
23385;DHT22;11865;45.394;10.978;2023-05-02T05:29:51;15.20;99.90
23385;DHT22;11865;45.394;10.978;2023-05-02T05:32:19;15.20;99.90
23385;DHT22;11865;45.394;10.978;2023-05-02T05:34:51;15.20;99.90
23385;DHT22;11865;45.394;10.978;2023-05-02T05:37:21;15.30;99.90
23385;DHT22;11865;45.394;10.978;2023-05-02T05:39:48;15.30;99.90
23385;DHT22;11865;45.394;10.978;2023-05-02T05:42:16;15.30;99.90
23385;DHT22;11865;45.394;10.978;2023-05-02T05:44:47;15.30;99.90
23385;DHT22;11865;45.394;10.978;2023-05-02T05:47:19;15.30;99.90
23385;DHT22;11865;45.394;10.978;2023-05-02T05:49:53;15.30;99.90
23385;DHT22;11865;45.394;10.978;2023-05-02T05:52:22;15.40;99.90
23385;DHT22;11865;45.394;10.978;2023-05-02T05:54:54;15.50;99.90
23385;DHT22;11865;45.394;10.978;2023-05-02T05:57:27;15.50;99.90
23385;DHT22;11865;45.394;10.978;2023-05-02T05:59:56;15.50;99.90
23385;DHT22;11865;45.394;10.978;2023-05-02T06:02:24;15.60;99.90
23385;DHT22;11865;45.394;10.978;2023-05-02T06:04:51;15.70;99.90
23385;DHT22;11865;45.394;10.978;2023-05-02T06:07:22;15.80;99.90
23385;DHT22;11865;45.394;10.978;2023-05-02T06:09:49;15.80;99.90
23385;DHT22;11865;45.394;10.978;2023-05-02T06:12:17;15.90;99.90
23385;DHT22;11865;45.394;10.978;2023-05-02T06:14:45;16.10;99.90
23385;DHT22;11865;45.394;10.978;2023-05-02T06:17:13;16.10;99.90
23385;DHT22;11865;45.394;10.978;2023-05-02T06:19:41;16.20;99.90
23385;DHT22;11865;45.394;10.978;2023-05-02T06:22:11;16.30;99.90
23385;DHT22;11865;45.394;10.978;2023-05-02T06:24:39;16.40;99.90
23385;DHT22;11865;45.394;10.978;2023-05-02T06:27:06;16.60;99.90
23385;DHT22;11865;45.394;10.978;2023-05-02T06:29:34;16.50;99.90
23385;DHT22;11865;45.394;10.978;2023-05-02T06:32:01;16.60;99.90
23385;DHT22;11865;45.394;10.978;2023-05-02T06:34:31;16.60;99.90
23385;DHT22;11865;45.394;10.978;2023-05-02T06:36:59;16.70;99.90
23385;DHT22;11865;45.394;10.978;2023-05-02T06:39:27;16.50;99.90
23385;DHT22;11865;45.394;10.978;2023-05-02T06:41:57;16.60;99.90
23385;DHT22;11865;45.394;10.978;2023-05-02T06:44:26;16.70;99.90
23385;DHT22;11865;45.394;10.978;2023-05-02T06:46:53;16.70;99.90
23385;DHT22;11865;45.394;10.978;2023-05-02T06:49:22;16.70;99.90
23385;DHT22;11865;45.394;10.978;2023-05-02T06:51:49;16.70;99.90
23385;DHT22;11865;45.394;10.978;2023-05-02T06:54:17;16.70;99.90
23385;DHT22;11865;45.394;10.978;2023-05-02T06:56:44;16.60;99.90
23385;DHT22;11865;45.394;10.978;2023-05-02T06:59:12;16.50;99.90
23385;DHT22;11865;45.394;10.978;2023-05-02T07:01:39;16.70;99.90
23385;DHT22;11865;45.394;10.978;2023-05-02T07:04:06;16.80;99.90
23385;DHT22;11865;45.394;10.978;2023-05-02T07:06:34;16.80;99.90
23385;DHT22;11865;45.394;10.978;2023-05-02T07:09:02;16.80;99.90
23385;DHT22;11865;45.394;10.978;2023-05-02T07:11:29;16.90;99.90
23385;DHT22;11865;45.394;10.978;2023-05-02T07:13:57;17.00;99.90
23385;DHT22;11865;45.394;10.978;2023-05-02T07:16:25;17.00;99.90
23385;DHT22;11865;45.394;10.978;2023-05-02T07:18:52;17.30;99.90
23385;DHT22;11865;45.394;10.978;2023-05-02T07:21:20;17.20;99.90
23385;DHT22;11865;45.394;10.978;2023-05-02T07:23:47;17.10;99.90
23385;DHT22;11865;45.394;10.978;2023-05-02T07:26:15;17.10;99.90
23385;DHT22;11865;45.394;10.978;2023-05-02T07:28:45;17.50;99.90
23385;DHT22;11865;45.394;10.978;2023-05-02T07:31:12;17.60;99.90
23385;DHT22;11865;45.394;10.978;2023-05-02T07:33:39;17.60;99.90
23385;DHT22;11865;45.394;10.978;2023-05-02T07:36:07;17.80;99.90
23385;DHT22;11865;45.394;10.978;2023-05-02T07:38:35;17.60;99.90
23385;DHT22;11865;45.394;10.978;2023-05-02T07:41:02;17.70;99.90
23385;DHT22;11865;45.394;10.978;2023-05-02T07:43:29;17.60;99.90
23385;DHT22;11865;45.394;10.978;2023-05-02T07:45:57;17.80;99.90
23385;DHT22;11865;45.394;10.978;2023-05-02T07:48:24;17.90;99.90
23385;DHT22;11865;45.394;10.978;2023-05-02T07:50:54;17.60;99.90
23385;DHT22;11865;45.394;10.978;2023-05-02T07:53:21;17.70;99.90
23385;DHT22;11865;45.394;10.978;2023-05-02T07:55:48;17.80;99.90
23385;DHT22;11865;45.394;10.978;2023-05-02T07:58:16;17.60;99.90
23385;DHT22;11865;45.394;10.978;2023-05-02T08:00:44;17.70;99.90
23385;DHT22;11865;45.394;10.978;2023-05-02T08:03:11;17.60;99.90
23385;DHT22;11865;45.394;10.978;2023-05-02T08:05:39;17.50;99.90
23385;DHT22;11865;45.394;10.978;2023-05-02T08:08:06;17.80;99.90
23385;DHT22;11865;45.394;10.978;2023-05-02T08:10:34;17.80;99.90
23385;DHT22;11865;45.394;10.978;2023-05-02T08:13:01;18.10;99.90
23385;DHT22;11865;45.394;10.978;2023-05-02T08:15:28;18.10;99.90
23385;DHT22;11865;45.394;10.978;2023-05-02T08:17:56;17.80;99.90
23385;DHT22;11865;45.394;10.978;2023-05-02T08:20:24;17.90;99.90
23385;DHT22;11865;45.394;10.978;2023-05-02T08:22:51;18.00;99.90
23385;DHT22;11865;45.394;10.978;2023-05-02T08:25:19;18.10;99.90
23385;DHT22;11865;45.394;10.978;2023-05-02T08:27:46;18.00;99.90
23385;DHT22;11865;45.394;10.978;2023-05-02T08:30:14;18.10;99.90
23385;DHT22;11865;45.394;10.978;2023-05-02T08:32:41;18.40;99.90
23385;DHT22;11865;45.394;10.978;2023-05-02T08:35:09;18.60;99.90
23385;DHT22;11865;45.394;10.978;2023-05-02T08:37:37;18.60;99.90
23385;DHT22;11865;45.394;10.978;2023-05-02T08:40:05;18.70;99.90
23385;DHT22;11865;45.394;10.978;2023-05-02T08:42:37;18.10;99.90
23385;DHT22;11865;45.394;10.978;2023-05-02T08:45:08;18.30;99.90
23385;DHT22;11865;45.394;10.978;2023-05-02T08:47:39;18.40;99.90
23385;DHT22;11865;45.394;10.978;2023-05-02T08:50:09;18.30;99.90
23385;DHT22;11865;45.394;10.978;2023-05-02T08:52:38;18.20;99.90
23385;DHT22;11865;45.394;10.978;2023-05-02T08:55:06;18.40;99.90
23385;DHT22;11865;45.394;10.978;2023-05-02T08:57:33;18.70;99.90
23385;DHT22;11865;45.394;10.978;2023-05-02T09:00:01;18.70;99.90
23385;DHT22;11865;45.394;10.978;2023-05-02T09:02:52;18.50;99.90
23385;DHT22;11865;45.394;10.978;2023-05-02T09:05:23;18.60;99.90
23385;DHT22;11865;45.394;10.978;2023-05-02T09:07:51;18.30;99.90
23385;DHT22;11865;45.394;10.978;2023-05-02T09:10:20;17.90;99.90
23385;DHT22;11865;45.394;10.978;2023-05-02T09:12:48;17.80;99.90
23385;DHT22;11865;45.394;10.978;2023-05-02T09:15:16;18.00;99.90
23385;DHT22;11865;45.394;10.978;2023-05-02T09:17:47;17.80;99.90
23385;DHT22;11865;45.394;10.978;2023-05-02T09:20:15;18.10;99.90
23385;DHT22;11865;45.394;10.978;2023-05-02T09:22:51;17.90;99.90
23385;DHT22;11865;45.394;10.978;2023-05-02T09:25:19;18.10;99.90
23385;DHT22;11865;45.394;10.978;2023-05-02T09:27:54;18.00;99.90
23385;DHT22;11865;45.394;10.978;2023-05-02T09:30:24;17.90;99.90
23385;DHT22;11865;45.394;10.978;2023-05-02T09:32:52;18.10;99.90
23385;DHT22;11865;45.394;10.978;2023-05-02T09:35:22;17.90;99.90
23385;DHT22;11865;45.394;10.978;2023-05-02T09:37:56;17.40;99.90
23385;DHT22;11865;45.394;10.978;2023-05-02T09:40:24;17.80;99.90
23385;DHT22;11865;45.394;10.978;2023-05-02T09:42:55;17.50;99.90
23385;DHT22;11865;45.394;10.978;2023-05-02T09:45:24;17.40;99.90
23385;DHT22;11865;45.394;10.978;2023-05-02T09:47:52;16.90;99.90
23385;DHT22;11865;45.394;10.978;2023-05-02T09:50:34;15.90;99.90
23385;DHT22;11865;45.394;10.978;2023-05-02T09:55:29;16.20;99.90
23385;DHT22;11865;45.394;10.978;2023-05-02T09:57:58;16.30;99.90
23385;DHT22;11865;45.394;10.978;2023-05-02T10:00:44;16.30;99.90
23385;DHT22;11865;45.394;10.978;2023-05-02T10:03:15;16.10;99.90
23385;DHT22;11865;45.394;10.978;2023-05-02T10:05:44;15.90;99.90
23385;DHT22;11865;45.394;10.978;2023-05-02T10:08:13;16.20;99.90
23385;DHT22;11865;45.394;10.978;2023-05-02T10:10:52;16.40;99.90
23385;DHT22;11865;45.394;10.978;2023-05-02T10:13:21;16.60;99.90
23385;DHT22;11865;45.394;10.978;2023-05-02T10:15:53;16.60;99.90
23385;DHT22;11865;45.394;10.978;2023-05-02T10:18:24;16.70;99.90
23385;DHT22;11865;45.394;10.978;2023-05-02T10:20:58;16.60;99.90
23385;DHT22;11865;45.394;10.978;2023-05-02T10:23:27;16.30;99.90
23385;DHT22;11865;45.394;10.978;2023-05-02T10:25:58;16.30;99.90
23385;DHT22;11865;45.394;10.978;2023-05-02T10:28:27;16.30;99.90
23385;DHT22;11865;45.394;10.978;2023-05-02T10:30:55;16.30;99.90
23385;DHT22;11865;45.394;10.978;2023-05-02T10:33:23;16.30;99.90
23385;DHT22;11865;45.394;10.978;2023-05-02T10:35:51;16.40;99.90
23385;DHT22;11865;45.394;10.978;2023-05-02T10:38:21;16.30;99.90
23385;DHT22;11865;45.394;10.978;2023-05-02T10:40:55;16.50;99.90
23385;DHT22;11865;45.394;10.978;2023-05-02T10:43:27;16.50;99.90
23385;DHT22;11865;45.394;10.978;2023-05-02T10:45:55;16.50;99.90
23385;DHT22;11865;45.394;10.978;2023-05-02T10:48:24;16.40;99.90
23385;DHT22;11865;45.394;10.978;2023-05-02T10:50:57;16.40;99.90
23385;DHT22;11865;45.394;10.978;2023-05-02T10:53:32;16.40;99.90
23385;DHT22;11865;45.394;10.978;2023-05-02T10:56:17;16.40;99.90
23385;DHT22;11865;45.394;10.978;2023-05-02T10:58:48;16.60;99.90
23385;DHT22;11865;45.394;10.978;2023-05-02T11:04:01;16.70;99.90
23385;DHT22;11865;45.394;10.978;2023-05-02T11:06:33;16.80;99.90
23385;DHT22;11865;45.394;10.978;2023-05-02T11:11:47;17.00;99.90
23385;DHT22;11865;45.394;10.978;2023-05-02T11:19:27;17.40;99.90
23385;DHT22;11865;45.394;10.978;2023-05-02T11:24:50;17.80;99.90
23385;DHT22;11865;45.394;10.978;2023-05-02T11:30:08;17.50;99.90
23385;DHT22;11865;45.394;10.978;2023-05-02T11:37:55;17.50;99.90
23385;DHT22;11865;45.394;10.978;2023-05-02T11:40:23;17.50;99.90
23385;DHT22;11865;45.394;10.978;2023-05-02T11:42:51;17.30;99.90
23385;DHT22;11865;45.394;10.978;2023-05-02T11:45:19;17.50;99.90
23385;DHT22;11865;45.394;10.978;2023-05-02T11:47:48;17.40;99.90
23385;DHT22;11865;45.394;10.978;2023-05-02T11:50:17;17.60;99.90
23385;DHT22;11865;45.394;10.978;2023-05-02T11:52:44;17.60;99.90
23385;DHT22;11865;45.394;10.978;2023-05-02T11:55:13;17.60;99.90
23385;DHT22;11865;45.394;10.978;2023-05-02T11:57:41;17.70;99.90
23385;DHT22;11865;45.394;10.978;2023-05-02T12:00:09;17.60;99.90
23385;DHT22;11865;45.394;10.978;2023-05-02T12:02:41;17.60;99.90
23385;DHT22;11865;45.394;10.978;2023-05-02T12:05:13;17.70;99.90
23385;DHT22;11865;45.394;10.978;2023-05-02T12:10:12;17.90;99.90
23385;DHT22;11865;45.394;10.978;2023-05-02T12:12:41;18.10;99.90
23385;DHT22;11865;45.394;10.978;2023-05-02T12:15:11;18.10;99.10
23385;DHT22;11865;45.394;10.978;2023-05-02T12:17:45;18.30;98.40
23385;DHT22;11865;45.394;10.978;2023-05-02T12:20:13;18.20;99.00
23385;DHT22;11865;45.394;10.978;2023-05-02T12:22:41;18.40;98.70
23385;DHT22;11865;45.394;10.978;2023-05-02T12:25:09;18.20;99.50
23385;DHT22;11865;45.394;10.978;2023-05-02T12:27:37;18.20;98.70
23385;DHT22;11865;45.394;10.978;2023-05-02T12:30:04;18.30;99.10
23385;DHT22;11865;45.394;10.978;2023-05-02T12:32:33;18.20;98.50
23385;DHT22;11865;45.394;10.978;2023-05-02T12:35:02;18.30;99.70
23385;DHT22;11865;45.394;10.978;2023-05-02T12:37:30;18.30;99.10
23385;DHT22;11865;45.394;10.978;2023-05-02T12:39:57;18.30;98.10
23385;DHT22;11865;45.394;10.978;2023-05-02T12:42:25;18.40;98.50
23385;DHT22;11865;45.394;10.978;2023-05-02T12:44:54;18.40;98.10
23385;DHT22;11865;45.394;10.978;2023-05-02T12:47:23;18.50;98.30
23385;DHT22;11865;45.394;10.978;2023-05-02T12:52:21;18.50;98.50
23385;DHT22;11865;45.394;10.978;2023-05-02T12:54:48;18.60;98.90
23385;DHT22;11865;45.394;10.978;2023-05-02T12:57:23;18.50;97.00
23385;DHT22;11865;45.394;10.978;2023-05-02T12:59:52;18.50;96.90
23385;DHT22;11865;45.394;10.978;2023-05-02T13:02:20;18.50;97.10
23385;DHT22;11865;45.394;10.978;2023-05-02T13:04:48;18.50;96.40
23385;DHT22;11865;45.394;10.978;2023-05-02T13:07:16;18.50;96.80
23385;DHT22;11865;45.394;10.978;2023-05-02T13:09:43;18.40;96.60
23385;DHT22;11865;45.394;10.978;2023-05-02T13:12:11;18.40;96.70
23385;DHT22;11865;45.394;10.978;2023-05-02T13:14:38;18.30;97.00
23385;DHT22;11865;45.394;10.978;2023-05-02T13:17:06;18.30;98.30
23385;DHT22;11865;45.394;10.978;2023-05-02T13:19:35;18.30;97.50
23385;DHT22;11865;45.394;10.978;2023-05-02T13:22:05;18.40;97.90
23385;DHT22;11865;45.394;10.978;2023-05-02T13:24:32;18.40;98.10
23385;DHT22;11865;45.394;10.978;2023-05-02T13:27:00;18.40;97.70
23385;DHT22;11865;45.394;10.978;2023-05-02T13:29:28;18.50;98.50
23385;DHT22;11865;45.394;10.978;2023-05-02T13:31:55;18.60;96.60
23385;DHT22;11865;45.394;10.978;2023-05-02T13:34:23;18.60;96.80
23385;DHT22;11865;45.394;10.978;2023-05-02T13:36:50;18.80;96.80
23385;DHT22;11865;45.394;10.978;2023-05-02T13:39:18;19.10;97.20
23385;DHT22;11865;45.394;10.978;2023-05-02T13:41:46;19.30;96.90
23385;DHT22;11865;45.394;10.978;2023-05-02T13:44:13;19.10;96.70
23385;DHT22;11865;45.394;10.978;2023-05-02T13:46:41;19.10;96.80
23385;DHT22;11865;45.394;10.978;2023-05-02T13:49:09;19.20;95.90
23385;DHT22;11865;45.394;10.978;2023-05-02T13:51:36;19.30;96.10
23385;DHT22;11865;45.394;10.978;2023-05-02T13:54:04;19.10;95.80
23385;DHT22;11865;45.394;10.978;2023-05-02T13:56:31;19.30;95.30
23385;DHT22;11865;45.394;10.978;2023-05-02T13:58:58;19.20;95.40
23385;DHT22;11865;45.394;10.978;2023-05-02T14:01:26;19.10;95.70
23385;DHT22;11865;45.394;10.978;2023-05-02T14:03:54;19.10;95.70
23385;DHT22;11865;45.394;10.978;2023-05-02T14:06:22;19.20;95.90
23385;DHT22;11865;45.394;10.978;2023-05-02T14:08:49;19.00;95.30
23385;DHT22;11865;45.394;10.978;2023-05-02T14:11:20;19.00;96.00
23385;DHT22;11865;45.394;10.978;2023-05-02T14:13:47;18.90;95.50
23385;DHT22;11865;45.394;10.978;2023-05-02T14:16:15;18.80;95.80
23385;DHT22;11865;45.394;10.978;2023-05-02T14:18:42;18.90;96.10
23385;DHT22;11865;45.394;10.978;2023-05-02T14:21:11;19.10;96.10
23385;DHT22;11865;45.394;10.978;2023-05-02T14:23:39;18.90;95.70
23385;DHT22;11865;45.394;10.978;2023-05-02T14:26:06;18.70;96.20
23385;DHT22;11865;45.394;10.978;2023-05-02T14:28:34;18.70;96.50
23385;DHT22;11865;45.394;10.978;2023-05-02T14:31:03;18.70;96.70
23385;DHT22;11865;45.394;10.978;2023-05-02T14:33:30;18.90;96.50
23385;DHT22;11865;45.394;10.978;2023-05-02T14:35:58;18.80;95.60
23385;DHT22;11865;45.394;10.978;2023-05-02T14:38:25;19.10;96.20
23385;DHT22;11865;45.394;10.978;2023-05-02T14:40:53;18.90;94.50
23385;DHT22;11865;45.394;10.978;2023-05-02T14:43:21;18.90;95.20
23385;DHT22;11865;45.394;10.978;2023-05-02T14:45:48;18.90;96.20
23385;DHT22;11865;45.394;10.978;2023-05-02T14:48:16;18.80;96.30
23385;DHT22;11865;45.394;10.978;2023-05-02T14:50:43;18.90;96.00
23385;DHT22;11865;45.394;10.978;2023-05-02T14:53:11;18.70;95.30
23385;DHT22;11865;45.394;10.978;2023-05-02T14:55:40;18.80;95.30
23385;DHT22;11865;45.394;10.978;2023-05-02T14:58:08;18.70;95.80
23385;DHT22;11865;45.394;10.978;2023-05-02T15:00:37;18.60;95.80
23385;DHT22;11865;45.394;10.978;2023-05-02T15:03:06;18.50;96.20
23385;DHT22;11865;45.394;10.978;2023-05-02T15:05:35;18.60;96.40
23385;DHT22;11865;45.394;10.978;2023-05-02T15:08:03;18.50;96.50
23385;DHT22;11865;45.394;10.978;2023-05-02T15:10:31;18.50;96.50
23385;DHT22;11865;45.394;10.978;2023-05-02T15:13:02;18.40;96.20
23385;DHT22;11865;45.394;10.978;2023-05-02T15:15:30;18.30;97.00
23385;DHT22;11865;45.394;10.978;2023-05-02T15:17:58;18.30;97.30
23385;DHT22;11865;45.394;10.978;2023-05-02T15:20:25;18.30;97.30
23385;DHT22;11865;45.394;10.978;2023-05-02T15:22:53;18.40;97.20
23385;DHT22;11865;45.394;10.978;2023-05-02T15:25:20;18.30;96.80
23385;DHT22;11865;45.394;10.978;2023-05-02T15:27:49;18.40;96.90
23385;DHT22;11865;45.394;10.978;2023-05-02T15:30:16;18.40;98.00
23385;DHT22;11865;45.394;10.978;2023-05-02T15:32:44;18.00;97.20
23385;DHT22;11865;45.394;10.978;2023-05-02T15:35:11;18.00;97.80
23385;DHT22;11865;45.394;10.978;2023-05-02T15:37:39;17.90;98.00
23385;DHT22;11865;45.394;10.978;2023-05-02T15:40:07;18.10;99.00
23385;DHT22;11865;45.394;10.978;2023-05-02T15:42:35;17.80;98.80
23385;DHT22;11865;45.394;10.978;2023-05-02T15:45:03;17.80;99.00
23385;DHT22;11865;45.394;10.978;2023-05-02T15:47:31;17.80;98.60
23385;DHT22;11865;45.394;10.978;2023-05-02T15:49:59;17.90;98.50
23385;DHT22;11865;45.394;10.978;2023-05-02T15:52:27;17.90;98.60
23385;DHT22;11865;45.394;10.978;2023-05-02T15:54:54;17.80;97.70
23385;DHT22;11865;45.394;10.978;2023-05-02T15:57:22;17.70;98.30
23385;DHT22;11865;45.394;10.978;2023-05-02T15:59:49;17.60;98.10
23385;DHT22;11865;45.394;10.978;2023-05-02T16:02:17;17.70;98.90
23385;DHT22;11865;45.394;10.978;2023-05-02T16:04:45;17.50;98.40
23385;DHT22;11865;45.394;10.978;2023-05-02T16:07:12;17.40;98.30
23385;DHT22;11865;45.394;10.978;2023-05-02T16:09:40;17.50;98.80
23385;DHT22;11865;45.394;10.978;2023-05-02T16:12:08;17.40;98.40
23385;DHT22;11865;45.394;10.978;2023-05-02T16:14:36;17.40;98.30